sensor_id;sensor_type;location;lat;lon;timestamp;P1;durP1;ratioP1;P2;durP2;ratioP2
84655;SDS011;76548;52.130;5.428;2024-02-21T00:00:54;7.70;;;2.30;;
84655;SDS011;76548;52.130;5.428;2024-02-21T00:03:23;9.68;;;2.40;;
84655;SDS011;76548;52.130;5.428;2024-02-21T00:05:58;9.00;;;2.22;;
84655;SDS011;76548;52.130;5.428;2024-02-21T00:08:26;6.60;;;2.10;;
84655;SDS011;76548;52.130;5.428;2024-02-21T00:10:54;5.53;;;1.93;;
84655;SDS011;76548;52.130;5.428;2024-02-21T00:13:22;6.20;;;2.17;;
84655;SDS011;76548;52.130;5.428;2024-02-21T00:15:50;8.27;;;2.20;;
84655;SDS011;76548;52.130;5.428;2024-02-21T00:18:18;18.00;;;2.35;;
84655;SDS011;76548;52.130;5.428;2024-02-21T00:20:46;10.90;;;2.63;;
84655;SDS011;76548;52.130;5.428;2024-02-21T00:23:14;3.27;;;1.97;;
84655;SDS011;76548;52.130;5.428;2024-02-21T00:25:42;9.10;;;2.60;;
84655;SDS011;76548;52.130;5.428;2024-02-21T00:28:10;7.10;;;3.22;;
84655;SDS011;76548;52.130;5.428;2024-02-21T00:33:35;12.50;;;2.07;;
84655;SDS011;76548;52.130;5.428;2024-02-21T00:36:04;11.20;;;7.07;;
84655;SDS011;76548;52.130;5.428;2024-02-21T00:38:32;8.83;;;2.57;;
84655;SDS011;76548;52.130;5.428;2024-02-21T00:41:00;12.70;;;2.60;;
84655;SDS011;76548;52.130;5.428;2024-02-21T00:43:28;11.50;;;5.78;;
84655;SDS011;76548;52.130;5.428;2024-02-21T00:45:56;25.63;;;12.67;;
84655;SDS011;76548;52.130;5.428;2024-02-21T00:51:31;14.07;;;3.07;;
84655;SDS011;76548;52.130;5.428;2024-02-21T00:54:00;8.93;;;2.47;;
84655;SDS011;76548;52.130;5.428;2024-02-21T00:59:10;9.18;;;2.15;;
84655;SDS011;76548;52.130;5.428;2024-02-21T01:04:22;9.00;;;1.90;;
84655;SDS011;76548;52.130;5.428;2024-02-21T01:06:51;6.40;;;1.40;;
84655;SDS011;76548;52.130;5.428;2024-02-21T01:09:21;6.30;;;1.50;;
84655;SDS011;76548;52.130;5.428;2024-02-21T01:11:49;5.93;;;1.95;;
84655;SDS011;76548;52.130;5.428;2024-02-21T01:14:17;9.93;;;2.43;;
84655;SDS011;76548;52.130;5.428;2024-02-21T01:16:45;18.23;;;4.07;;
84655;SDS011;76548;52.130;5.428;2024-02-21T01:19:13;6.93;;;1.93;;
84655;SDS011;76548;52.130;5.428;2024-02-21T01:21:45;7.50;;;1.70;;
84655;SDS011;76548;52.130;5.428;2024-02-21T01:24:13;8.15;;;1.70;;
84655;SDS011;76548;52.130;5.428;2024-02-21T01:26:41;7.27;;;2.30;;
84655;SDS011;76548;52.130;5.428;2024-02-21T01:29:09;6.63;;;2.20;;
84655;SDS011;76548;52.130;5.428;2024-02-21T01:31:41;15.77;;;7.57;;
84655;SDS011;76548;52.130;5.428;2024-02-21T01:34:16;14.52;;;3.45;;
84655;SDS011;76548;52.130;5.428;2024-02-21T01:36:45;6.43;;;3.60;;
84655;SDS011;76548;52.130;5.428;2024-02-21T01:39:13;7.17;;;3.60;;
84655;SDS011;76548;52.130;5.428;2024-02-21T01:41:49;9.93;;;3.42;;
84655;SDS011;76548;52.130;5.428;2024-02-21T01:47:35;14.50;;;2.90;;
84655;SDS011;76548;52.130;5.428;2024-02-21T01:50:06;17.08;;;4.20;;
84655;SDS011;76548;52.130;5.428;2024-02-21T01:52:34;13.00;;;3.45;;
84655;SDS011;76548;52.130;5.428;2024-02-21T01:55:03;18.40;;;3.47;;
84655;SDS011;76548;52.130;5.428;2024-02-21T01:57:40;6.00;;;3.17;;
84655;SDS011;76548;52.130;5.428;2024-02-21T02:00:10;11.55;;;3.20;;
84655;SDS011;76548;52.130;5.428;2024-02-21T02:02:40;6.07;;;2.37;;
84655;SDS011;76548;52.130;5.428;2024-02-21T02:05:10;12.27;;;3.50;;
84655;SDS011;76548;52.130;5.428;2024-02-21T02:07:43;6.70;;;3.40;;
84655;SDS011;76548;52.130;5.428;2024-02-21T02:10:20;7.18;;;2.67;;
84655;SDS011;76548;52.130;5.428;2024-02-21T02:12:48;9.07;;;3.13;;
84655;SDS011;76548;52.130;5.428;2024-02-21T02:15:16;11.40;;;4.40;;
84655;SDS011;76548;52.130;5.428;2024-02-21T02:20:22;7.50;;;3.33;;
84655;SDS011;76548;52.130;5.428;2024-02-21T02:23:03;9.55;;;2.72;;
84655;SDS011;76548;52.130;5.428;2024-02-21T02:25:35;13.03;;;4.33;;
84655;SDS011;76548;52.130;5.428;2024-02-21T02:28:05;11.10;;;5.03;;
84655;SDS011;76548;52.130;5.428;2024-02-21T02:30:33;9.77;;;3.20;;
84655;SDS011;76548;52.130;5.428;2024-02-21T02:33:02;8.00;;;3.10;;
84655;SDS011;76548;52.130;5.428;2024-02-21T02:35:35;12.60;;;3.93;;
84655;SDS011;76548;52.130;5.428;2024-02-21T02:38:03;11.38;;;4.05;;
84655;SDS011;76548;52.130;5.428;2024-02-21T02:40:33;7.83;;;3.77;;
84655;SDS011;76548;52.130;5.428;2024-02-21T02:43:02;8.40;;;2.70;;
84655;SDS011;76548;52.130;5.428;2024-02-21T02:45:30;10.63;;;6.10;;
84655;SDS011;76548;52.130;5.428;2024-02-21T02:48:05;19.20;;;8.90;;
84655;SDS011;76548;52.130;5.428;2024-02-21T02:50:34;26.50;;;13.36;;
84655;SDS011;76548;52.130;5.428;2024-02-21T02:53:01;14.13;;;6.77;;
84655;SDS011;76548;52.130;5.428;2024-02-21T02:55:32;20.00;;;8.40;;
84655;SDS011;76548;52.130;5.428;2024-02-21T03:01:02;11.18;;;5.05;;
84655;SDS011;76548;52.130;5.428;2024-02-21T03:03:31;10.63;;;3.47;;
84655;SDS011;76548;52.130;5.428;2024-02-21T03:05:59;17.27;;;6.60;;
84655;SDS011;76548;52.130;5.428;2024-02-21T03:08:28;15.30;;;5.85;;
84655;SDS011;76548;52.130;5.428;2024-02-21T03:10:56;13.17;;;4.07;;
84655;SDS011;76548;52.130;5.428;2024-02-21T03:13:25;7.80;;;3.10;;
84655;SDS011;76548;52.130;5.428;2024-02-21T03:15:53;7.72;;;2.95;;
84655;SDS011;76548;52.130;5.428;2024-02-21T03:18:21;8.40;;;3.13;;
84655;SDS011;76548;52.130;5.428;2024-02-21T03:20:49;8.80;;;2.72;;
84655;SDS011;76548;52.130;5.428;2024-02-21T03:23:17;9.13;;;3.27;;
84655;SDS011;76548;52.130;5.428;2024-02-21T03:25:45;10.93;;;4.57;;
84655;SDS011;76548;52.130;5.428;2024-02-21T03:28:13;10.70;;;3.73;;
84655;SDS011;76548;52.130;5.428;2024-02-21T03:30:45;8.20;;;3.95;;
84655;SDS011;76548;52.130;5.428;2024-02-21T03:33:24;12.18;;;3.42;;
84655;SDS011;76548;52.130;5.428;2024-02-21T03:35:52;10.53;;;4.37;;
84655;SDS011;76548;52.130;5.428;2024-02-21T03:38:20;9.63;;;3.92;;
84655;SDS011;76548;52.130;5.428;2024-02-21T03:40:48;10.00;;;4.20;;
84655;SDS011;76548;52.130;5.428;2024-02-21T03:43:16;6.38;;;3.63;;
84655;SDS011;76548;52.130;5.428;2024-02-21T03:45:44;10.65;;;3.58;;
84655;SDS011;76548;52.130;5.428;2024-02-21T03:48:11;14.50;;;8.73;;
84655;SDS011;76548;52.130;5.428;2024-02-21T03:50:39;11.23;;;5.83;;
84655;SDS011;76548;52.130;5.428;2024-02-21T03:53:08;7.07;;;5.67;;
84655;SDS011;76548;52.130;5.428;2024-02-21T03:55:36;7.50;;;4.33;;
84655;SDS011;76548;52.130;5.428;2024-02-21T03:58:04;18.20;;;8.07;;
84655;SDS011;76548;52.130;5.428;2024-02-21T04:00:36;7.70;;;4.87;;
84655;SDS011;76548;52.130;5.428;2024-02-21T04:03:06;10.90;;;6.70;;
84655;SDS011;76548;52.130;5.428;2024-02-21T04:05:36;18.70;;;15.47;;
84655;SDS011;76548;52.130;5.428;2024-02-21T04:08:06;9.17;;;5.50;;
84655;SDS011;76548;52.130;5.428;2024-02-21T04:10:35;7.50;;;3.55;;
84655;SDS011;76548;52.130;5.428;2024-02-21T04:13:04;7.30;;;3.67;;
84655;SDS011;76548;52.130;5.428;2024-02-21T04:15:32;9.67;;;3.73;;
84655;SDS011;76548;52.130;5.428;2024-02-21T04:18:02;9.73;;;3.75;;
84655;SDS011;76548;52.130;5.428;2024-02-21T04:20:35;5.07;;;3.23;;
84655;SDS011;76548;52.130;5.428;2024-02-21T04:23:07;8.30;;;4.47;;
84655;SDS011;76548;52.130;5.428;2024-02-21T04:25:39;10.45;;;4.38;;
84655;SDS011;76548;52.130;5.428;2024-02-21T04:28:07;6.67;;;4.27;;
84655;SDS011;76548;52.130;5.428;2024-02-21T04:33:36;6.93;;;3.63;;
84655;SDS011;76548;52.130;5.428;2024-02-21T04:36:05;12.00;;;4.03;;
84655;SDS011;76548;52.130;5.428;2024-02-21T04:38:33;10.63;;;4.60;;
84655;SDS011;76548;52.130;5.428;2024-02-21T04:41:08;6.10;;;3.70;;
84655;SDS011;76548;52.130;5.428;2024-02-21T04:43:40;7.03;;;3.67;;
84655;SDS011;76548;52.130;5.428;2024-02-21T04:46:08;21.17;;;8.63;;
84655;SDS011;76548;52.130;5.428;2024-02-21T04:48:36;6.20;;;3.93;;
84655;SDS011;76548;52.130;5.428;2024-02-21T04:51:04;17.15;;;7.53;;
84655;SDS011;76548;52.130;5.428;2024-02-21T04:53:32;15.27;;;8.70;;
84655;SDS011;76548;52.130;5.428;2024-02-21T04:56:00;6.32;;;3.85;;
84655;SDS011;76548;52.130;5.428;2024-02-21T04:58:29;7.80;;;3.70;;
84655;SDS011;76548;52.130;5.428;2024-02-21T05:00:57;11.77;;;4.37;;
84655;SDS011;76548;52.130;5.428;2024-02-21T05:03:25;5.17;;;3.40;;
84655;SDS011;76548;52.130;5.428;2024-02-21T05:05:53;4.87;;;3.07;;
84655;SDS011;76548;52.130;5.428;2024-02-21T05:08:21;8.25;;;4.25;;
84655;SDS011;76548;52.130;5.428;2024-02-21T05:10:53;13.93;;;4.05;;
84655;SDS011;76548;52.130;5.428;2024-02-21T05:13:24;8.98;;;6.25;;
84655;SDS011;76548;52.130;5.428;2024-02-21T05:15:53;9.00;;;5.03;;
84655;SDS011;76548;52.130;5.428;2024-02-21T05:18:21;9.40;;;4.67;;
84655;SDS011;76548;52.130;5.428;2024-02-21T05:20:49;13.95;;;8.05;;
84655;SDS011;76548;52.130;5.428;2024-02-21T05:23:17;7.30;;;3.83;;
84655;SDS011;76548;52.130;5.428;2024-02-21T05:25:45;11.63;;;4.80;;
84655;SDS011;76548;52.130;5.428;2024-02-21T05:28:20;9.77;;;3.95;;
84655;SDS011;76548;52.130;5.428;2024-02-21T05:30:48;10.50;;;4.67;;
84655;SDS011;76548;52.130;5.428;2024-02-21T05:35:49;8.73;;;4.70;;
84655;SDS011;76548;52.130;5.428;2024-02-21T05:38:18;3.58;;;3.28;;
84655;SDS011;76548;52.130;5.428;2024-02-21T05:40:46;4.83;;;2.83;;
84655;SDS011;76548;52.130;5.428;2024-02-21T05:43:25;7.35;;;4.10;;
84655;SDS011;76548;52.130;5.428;2024-02-21T05:45:53;9.33;;;4.67;;
84655;SDS011;76548;52.130;5.428;2024-02-21T05:48:22;4.40;;;3.78;;
84655;SDS011;76548;52.130;5.428;2024-02-21T05:50:50;6.03;;;4.33;;
84655;SDS011;76548;52.130;5.428;2024-02-21T05:53:19;8.07;;;3.47;;
84655;SDS011;76548;52.130;5.428;2024-02-21T05:55:47;7.77;;;4.23;;
84655;SDS011;76548;52.130;5.428;2024-02-21T06:00:59;5.65;;;4.00;;
84655;SDS011;76548;52.130;5.428;2024-02-21T06:03:28;8.75;;;5.53;;
84655;SDS011;76548;52.130;5.428;2024-02-21T06:05:56;5.33;;;4.27;;
84655;SDS011;76548;52.130;5.428;2024-02-21T06:08:24;7.93;;;4.70;;
84655;SDS011;76548;52.130;5.428;2024-02-21T06:10:52;10.90;;;5.47;;
84655;SDS011;76548;52.130;5.428;2024-02-21T06:16:54;9.30;;;4.70;;
84655;SDS011;76548;52.130;5.428;2024-02-21T06:19:22;6.57;;;5.00;;
84655;SDS011;76548;52.130;5.428;2024-02-21T06:22:00;9.60;;;4.85;;
84655;SDS011;76548;52.130;5.428;2024-02-21T06:24:29;9.30;;;8.30;;
84655;SDS011;76548;52.130;5.428;2024-02-21T06:26:57;11.53;;;5.43;;
84655;SDS011;76548;52.130;5.428;2024-02-21T06:29:27;14.60;;;9.00;;
84655;SDS011;76548;52.130;5.428;2024-02-21T06:34:38;9.38;;;4.68;;
84655;SDS011;76548;52.130;5.428;2024-02-21T06:37:08;16.75;;;12.15;;
84655;SDS011;76548;52.130;5.428;2024-02-21T06:39:37;8.43;;;5.67;;
84655;SDS011;76548;52.130;5.428;2024-02-21T06:42:06;9.93;;;6.60;;
84655;SDS011;76548;52.130;5.428;2024-02-21T06:44:38;6.55;;;5.30;;
84655;SDS011;76548;52.130;5.428;2024-02-21T06:47:10;13.10;;;6.57;;
84655;SDS011;76548;52.130;5.428;2024-02-21T06:49:48;9.03;;;6.47;;
84655;SDS011;76548;52.130;5.428;2024-02-21T06:52:17;10.18;;;5.75;;
84655;SDS011;76548;52.130;5.428;2024-02-21T06:54:48;10.32;;;6.45;;
84655;SDS011;76548;52.130;5.428;2024-02-21T06:57:19;12.90;;;6.40;;
84655;SDS011;76548;52.130;5.428;2024-02-21T06:59:47;10.43;;;6.40;;
84655;SDS011;76548;52.130;5.428;2024-02-21T07:02:14;14.47;;;6.40;;
84655;SDS011;76548;52.130;5.428;2024-02-21T07:04:43;13.73;;;6.93;;
84655;SDS011;76548;52.130;5.428;2024-02-21T07:07:11;12.03;;;6.37;;
84655;SDS011;76548;52.130;5.428;2024-02-21T07:09:42;16.25;;;8.15;;
84655;SDS011;76548;52.130;5.428;2024-02-21T07:12:10;14.15;;;7.43;;
84655;SDS011;76548;52.130;5.428;2024-02-21T07:14:39;12.95;;;6.70;;
84655;SDS011;76548;52.130;5.428;2024-02-21T07:17:07;14.95;;;6.85;;
84655;SDS011;76548;52.130;5.428;2024-02-21T07:19:35;13.02;;;7.10;;
84655;SDS011;76548;52.130;5.428;2024-02-21T07:22:03;11.23;;;7.57;;
84655;SDS011;76548;52.130;5.428;2024-02-21T07:24:41;14.73;;;7.47;;
84655;SDS011;76548;52.130;5.428;2024-02-21T07:27:09;14.03;;;7.47;;
84655;SDS011;76548;52.130;5.428;2024-02-21T07:29:37;17.60;;;7.80;;
84655;SDS011;76548;52.130;5.428;2024-02-21T07:32:05;13.53;;;6.33;;
84655;SDS011;76548;52.130;5.428;2024-02-21T07:34:33;17.50;;;6.38;;
84655;SDS011;76548;52.130;5.428;2024-02-21T07:37:01;10.87;;;6.17;;
84655;SDS011;76548;52.130;5.428;2024-02-21T07:45:52;8.90;;;5.73;;
84655;SDS011;76548;52.130;5.428;2024-02-21T07:48:21;15.48;;;6.45;;
84655;SDS011;76548;52.130;5.428;2024-02-21T07:50:51;13.93;;;7.03;;
84655;SDS011;76548;52.130;5.428;2024-02-21T07:53:19;13.80;;;5.60;;
84655;SDS011;76548;52.130;5.428;2024-02-21T07:55:55;10.25;;;7.07;;
84655;SDS011;76548;52.130;5.428;2024-02-21T07:58:23;11.30;;;5.70;;
84655;SDS011;76548;52.130;5.428;2024-02-21T08:00:51;12.07;;;7.68;;
84655;SDS011;76548;52.130;5.428;2024-02-21T08:03:19;10.35;;;6.65;;
84655;SDS011;76548;52.130;5.428;2024-02-21T08:05:48;10.33;;;6.00;;
84655;SDS011;76548;52.130;5.428;2024-02-21T08:08:16;12.88;;;7.82;;
84655;SDS011;76548;52.130;5.428;2024-02-21T08:10:47;13.90;;;7.47;;
84655;SDS011;76548;52.130;5.428;2024-02-21T08:13:15;12.00;;;8.63;;
84655;SDS011;76548;52.130;5.428;2024-02-21T08:15:43;6.30;;;4.90;;
84655;SDS011;76548;52.130;5.428;2024-02-21T08:18:11;13.02;;;7.25;;
84655;SDS011;76548;52.130;5.428;2024-02-21T08:20:39;16.80;;;9.77;;
84655;SDS011;76548;52.130;5.428;2024-02-21T08:23:07;14.77;;;7.97;;
84655;SDS011;76548;52.130;5.428;2024-02-21T08:25:35;9.87;;;5.80;;
84655;SDS011;76548;52.130;5.428;2024-02-21T08:28:04;14.50;;;5.80;;
84655;SDS011;76548;52.130;5.428;2024-02-21T08:30:33;9.20;;;6.47;;
84655;SDS011;76548;52.130;5.428;2024-02-21T08:33:01;13.50;;;6.30;;
84655;SDS011;76548;52.130;5.428;2024-02-21T08:38:02;8.75;;;5.78;;
84655;SDS011;76548;52.130;5.428;2024-02-21T08:40:30;10.87;;;5.63;;
84655;SDS011;76548;52.130;5.428;2024-02-21T08:42:58;8.98;;;6.95;;
84655;SDS011;76548;52.130;5.428;2024-02-21T08:45:26;10.77;;;6.20;;
84655;SDS011;76548;52.130;5.428;2024-02-21T08:47:54;9.40;;;5.97;;
84655;SDS011;76548;52.130;5.428;2024-02-21T08:50:22;6.55;;;4.97;;
84655;SDS011;76548;52.130;5.428;2024-02-21T08:52:55;10.02;;;5.07;;
84655;SDS011;76548;52.130;5.428;2024-02-21T08:55:24;7.17;;;5.03;;
84655;SDS011;76548;52.130;5.428;2024-02-21T08:57:52;9.52;;;5.60;;
84655;SDS011;76548;52.130;5.428;2024-02-21T09:00:21;9.60;;;4.80;;
84655;SDS011;76548;52.130;5.428;2024-02-21T09:02:55;6.28;;;4.28;;
84655;SDS011;76548;52.130;5.428;2024-02-21T09:05:23;12.37;;;6.13;;
84655;SDS011;76548;52.130;5.428;2024-02-21T09:11:15;6.20;;;3.92;;
84655;SDS011;76548;52.130;5.428;2024-02-21T09:13:44;3.65;;;2.83;;
84655;SDS011;76548;52.130;5.428;2024-02-21T09:16:12;7.73;;;4.70;;
84655;SDS011;76548;52.130;5.428;2024-02-21T09:18:40;10.27;;;5.22;;
84655;SDS011;76548;52.130;5.428;2024-02-21T09:21:08;8.33;;;4.20;;
84655;SDS011;76548;52.130;5.428;2024-02-21T09:23:36;6.93;;;4.27;;
84655;SDS011;76548;52.130;5.428;2024-02-21T09:26:04;10.60;;;4.67;;
84655;SDS011;76548;52.130;5.428;2024-02-21T09:28:32;7.35;;;5.05;;
84655;SDS011;76548;52.130;5.428;2024-02-21T09:31:01;7.38;;;4.93;;
84655;SDS011;76548;52.130;5.428;2024-02-21T09:33:30;6.88;;;4.60;;
84655;SDS011;76548;52.130;5.428;2024-02-21T09:36:00;6.70;;;3.38;;
84655;SDS011;76548;52.130;5.428;2024-02-21T09:38:28;12.13;;;5.37;;
84655;SDS011;76548;52.130;5.428;2024-02-21T09:43:34;7.00;;;3.97;;
84655;SDS011;76548;52.130;5.428;2024-02-21T09:46:02;6.65;;;3.15;;
84655;SDS011;76548;52.130;5.428;2024-02-21T09:51:08;4.78;;;3.45;;
84655;SDS011;76548;52.130;5.428;2024-02-21T09:53:39;6.97;;;3.47;;
84655;SDS011;76548;52.130;5.428;2024-02-21T09:56:10;6.47;;;3.80;;
84655;SDS011;76548;52.130;5.428;2024-02-21T09:58:41;5.83;;;2.93;;
84655;SDS011;76548;52.130;5.428;2024-02-21T10:01:09;8.30;;;3.93;;
84655;SDS011;76548;52.130;5.428;2024-02-21T10:03:55;4.18;;;3.58;;
84655;SDS011;76548;52.130;5.428;2024-02-21T10:06:25;5.93;;;4.10;;
84655;SDS011;76548;52.130;5.428;2024-02-21T10:08:53;8.53;;;4.07;;
84655;SDS011;76548;52.130;5.428;2024-02-21T10:11:24;4.70;;;3.03;;
84655;SDS011;76548;52.130;5.428;2024-02-21T10:14:04;3.92;;;2.88;;
84655;SDS011;76548;52.130;5.428;2024-02-21T10:16:33;4.83;;;4.00;;
84655;SDS011;76548;52.130;5.428;2024-02-21T10:19:16;4.72;;;3.38;;
84655;SDS011;76548;52.130;5.428;2024-02-21T10:22:04;5.17;;;3.10;;
84655;SDS011;76548;52.130;5.428;2024-02-21T10:24:33;5.22;;;3.80;;
84655;SDS011;76548;52.130;5.428;2024-02-21T10:27:05;4.87;;;2.93;;
84655;SDS011;76548;52.130;5.428;2024-02-21T10:29:35;5.75;;;2.45;;
84655;SDS011;76548;52.130;5.428;2024-02-21T10:32:07;2.60;;;1.93;;
84655;SDS011;76548;52.130;5.428;2024-02-21T10:37:20;5.40;;;2.80;;
84655;SDS011;76548;52.130;5.428;2024-02-21T10:39:48;6.50;;;3.13;;
84655;SDS011;76548;52.130;5.428;2024-02-21T10:42:16;3.65;;;2.83;;
84655;SDS011;76548;52.130;5.428;2024-02-21T10:44:46;4.30;;;3.00;;
84655;SDS011;76548;52.130;5.428;2024-02-21T10:47:18;4.70;;;2.63;;
84655;SDS011;76548;52.130;5.428;2024-02-21T10:49:49;5.00;;;1.77;;
84655;SDS011;76548;52.130;5.428;2024-02-21T10:54:53;3.97;;;2.87;;
84655;SDS011;76548;52.130;5.428;2024-02-21T10:57:25;2.85;;;2.03;;
84655;SDS011;76548;52.130;5.428;2024-02-21T10:59:55;3.85;;;2.30;;
84655;SDS011;76548;52.130;5.428;2024-02-21T11:02:23;5.38;;;2.80;;
84655;SDS011;76548;52.130;5.428;2024-02-21T11:04:52;3.90;;;2.83;;
84655;SDS011;76548;52.130;5.428;2024-02-21T11:07:23;4.32;;;2.67;;
84655;SDS011;76548;52.130;5.428;2024-02-21T11:09:54;4.10;;;2.35;;
84655;SDS011;76548;52.130;5.428;2024-02-21T11:15:15;1.60;;;1.50;;
84655;SDS011;76548;52.130;5.428;2024-02-21T11:17:53;3.50;;;2.15;;
84655;SDS011;76548;52.130;5.428;2024-02-21T11:20:34;3.80;;;2.77;;
84655;SDS011;76548;52.130;5.428;2024-02-21T11:23:02;6.07;;;3.17;;
84655;SDS011;76548;52.130;5.428;2024-02-21T11:25:34;3.45;;;2.05;;
84655;SDS011;76548;52.130;5.428;2024-02-21T11:28:02;3.92;;;2.63;;
84655;SDS011;76548;52.130;5.428;2024-02-21T11:30:31;3.55;;;2.47;;
84655;SDS011;76548;52.130;5.428;2024-02-21T11:33:07;3.83;;;2.20;;
84655;SDS011;76548;52.130;5.428;2024-02-21T11:35:35;2.72;;;1.83;;
84655;SDS011;76548;52.130;5.428;2024-02-21T11:38:09;4.20;;;2.67;;
84655;SDS011;76548;52.130;5.428;2024-02-21T11:40:41;2.92;;;2.38;;
84655;SDS011;76548;52.130;5.428;2024-02-21T11:43:12;7.57;;;3.03;;
84655;SDS011;76548;52.130;5.428;2024-02-21T11:45:40;7.00;;;2.97;;
84655;SDS011;76548;52.130;5.428;2024-02-21T11:48:11;2.22;;;1.90;;
84655;SDS011;76548;52.130;5.428;2024-02-21T11:50:40;4.30;;;2.60;;
84655;SDS011;76548;52.130;5.428;2024-02-21T11:55:42;3.08;;;2.78;;
84655;SDS011;76548;52.130;5.428;2024-02-21T11:58:10;5.10;;;3.50;;
84655;SDS011;76548;52.130;5.428;2024-02-21T12:00:38;6.85;;;3.88;;
84655;SDS011;76548;52.130;5.428;2024-02-21T12:03:07;4.35;;;2.83;;
84655;SDS011;76548;52.130;5.428;2024-02-21T12:05:35;3.83;;;3.50;;
84655;SDS011;76548;52.130;5.428;2024-02-21T12:08:04;6.40;;;3.27;;
84655;SDS011;76548;52.130;5.428;2024-02-21T12:10:35;5.50;;;3.63;;
84655;SDS011;76548;52.130;5.428;2024-02-21T12:13:08;7.53;;;3.17;;
84655;SDS011;76548;52.130;5.428;2024-02-21T12:19:19;5.38;;;4.16;;
84655;SDS011;76548;52.130;5.428;2024-02-21T12:21:48;4.88;;;2.95;;
84655;SDS011;76548;52.130;5.428;2024-02-21T12:24:24;5.03;;;3.75;;
84655;SDS011;76548;52.130;5.428;2024-02-21T12:26:52;6.50;;;4.40;;
84655;SDS011;76548;52.130;5.428;2024-02-21T12:29:20;6.82;;;3.97;;
84655;SDS011;76548;52.130;5.428;2024-02-21T12:31:48;3.87;;;3.47;;
84655;SDS011;76548;52.130;5.428;2024-02-21T12:34:18;5.00;;;2.33;;
84655;SDS011;76548;52.130;5.428;2024-02-21T12:37:01;3.95;;;2.83;;
84655;SDS011;76548;52.130;5.428;2024-02-21T12:39:30;6.15;;;2.60;;
84655;SDS011;76548;52.130;5.428;2024-02-21T12:42:02;9.07;;;2.72;;
84655;SDS011;76548;52.130;5.428;2024-02-21T12:44:30;5.40;;;2.63;;
84655;SDS011;76548;52.130;5.428;2024-02-21T12:47:14;3.20;;;2.70;;
84655;SDS011;76548;52.130;5.428;2024-02-21T12:49:45;3.95;;;2.67;;
84655;SDS011;76548;52.130;5.428;2024-02-21T12:52:13;3.17;;;2.53;;
84655;SDS011;76548;52.130;5.428;2024-02-21T12:54:42;3.60;;;2.22;;
84655;SDS011;76548;52.130;5.428;2024-02-21T12:57:10;6.15;;;2.47;;
84655;SDS011;76548;52.130;5.428;2024-02-21T12:59:38;2.70;;;2.17;;
84655;SDS011;76548;52.130;5.428;2024-02-21T13:02:13;5.50;;;3.53;;
84655;SDS011;76548;52.130;5.428;2024-02-21T13:04:42;2.60;;;1.63;;
84655;SDS011;76548;52.130;5.428;2024-02-21T13:07:21;5.30;;;2.47;;
84655;SDS011;76548;52.130;5.428;2024-02-21T13:09:49;3.83;;;2.13;;
84655;SDS011;76548;52.130;5.428;2024-02-21T13:12:17;3.50;;;3.00;;
84655;SDS011;76548;52.130;5.428;2024-02-21T13:14:45;5.18;;;2.35;;
84655;SDS011;76548;52.130;5.428;2024-02-21T13:17:13;4.40;;;2.33;;
84655;SDS011;76548;52.130;5.428;2024-02-21T13:19:42;4.47;;;2.22;;
84655;SDS011;76548;52.130;5.428;2024-02-21T13:22:10;4.03;;;2.00;;
84655;SDS011;76548;52.130;5.428;2024-02-21T13:24:38;5.63;;;2.70;;
84655;SDS011;76548;52.130;5.428;2024-02-21T13:27:06;3.92;;;2.58;;
84655;SDS011;76548;52.130;5.428;2024-02-21T13:29:34;3.65;;;1.55;;
84655;SDS011;76548;52.130;5.428;2024-02-21T13:32:04;6.53;;;2.77;;
84655;SDS011;76548;52.130;5.428;2024-02-21T13:34:33;3.30;;;1.77;;
84655;SDS011;76548;52.130;5.428;2024-02-21T13:37:01;3.50;;;1.60;;
84655;SDS011;76548;52.130;5.428;2024-02-21T13:39:29;4.07;;;1.30;;
84655;SDS011;76548;52.130;5.428;2024-02-21T13:41:58;2.60;;;1.43;;
84655;SDS011;76548;52.130;5.428;2024-02-21T13:44:26;3.28;;;1.50;;
84655;SDS011;76548;52.130;5.428;2024-02-21T13:46:54;5.07;;;1.88;;
84655;SDS011;76548;52.130;5.428;2024-02-21T13:49:22;6.60;;;2.80;;
84655;SDS011;76548;52.130;5.428;2024-02-21T13:51:50;5.78;;;1.75;;
84655;SDS011;76548;52.130;5.428;2024-02-21T13:54:18;3.47;;;1.52;;
84655;SDS011;76548;52.130;5.428;2024-02-21T13:56:46;3.03;;;1.98;;
84655;SDS011;76548;52.130;5.428;2024-02-21T14:01:56;13.07;;;2.50;;
84655;SDS011;76548;52.130;5.428;2024-02-21T14:04:24;5.07;;;1.50;;
84655;SDS011;76548;52.130;5.428;2024-02-21T14:06:53;3.92;;;1.88;;
84655;SDS011;76548;52.130;5.428;2024-02-21T14:09:20;3.47;;;1.77;;
84655;SDS011;76548;52.130;5.428;2024-02-21T14:11:48;4.97;;;1.85;;
84655;SDS011;76548;52.130;5.428;2024-02-21T14:14:16;1.85;;;1.10;;
84655;SDS011;76548;52.130;5.428;2024-02-21T14:16:44;3.90;;;1.52;;
84655;SDS011;76548;52.130;5.428;2024-02-21T14:19:15;1.90;;;1.33;;
84655;SDS011;76548;52.130;5.428;2024-02-21T14:21:43;3.80;;;1.50;;
84655;SDS011;76548;52.130;5.428;2024-02-21T14:24:11;6.18;;;2.22;;
84655;SDS011;76548;52.130;5.428;2024-02-21T14:26:39;3.30;;;1.38;;
84655;SDS011;76548;52.130;5.428;2024-02-21T14:29:08;7.10;;;1.93;;
84655;SDS011;76548;52.130;5.428;2024-02-21T14:34:24;3.13;;;1.10;;
84655;SDS011;76548;52.130;5.428;2024-02-21T14:36:54;6.70;;;1.77;;
84655;SDS011;76548;52.130;5.428;2024-02-21T14:39:21;4.70;;;1.77;;
84655;SDS011;76548;52.130;5.428;2024-02-21T14:41:50;4.25;;;1.70;;
84655;SDS011;76548;52.130;5.428;2024-02-21T14:44:18;2.28;;;1.08;;
84655;SDS011;76548;52.130;5.428;2024-02-21T14:46:49;4.63;;;1.42;;
84655;SDS011;76548;52.130;5.428;2024-02-21T14:49:18;3.77;;;1.40;;
84655;SDS011;76548;52.130;5.428;2024-02-21T14:51:49;3.67;;;1.70;;
84655;SDS011;76548;52.130;5.428;2024-02-21T14:54:17;4.05;;;1.90;;
84655;SDS011;76548;52.130;5.428;2024-02-21T14:59:34;5.47;;;2.03;;
84655;SDS011;76548;52.130;5.428;2024-02-21T15:02:02;4.15;;;1.42;;
84655;SDS011;76548;52.130;5.428;2024-02-21T15:04:30;2.20;;;1.30;;
84655;SDS011;76548;52.130;5.428;2024-02-21T15:06:58;3.13;;;1.23;;
84655;SDS011;76548;52.130;5.428;2024-02-21T15:09:27;3.03;;;1.20;;
84655;SDS011;76548;52.130;5.428;2024-02-21T15:15:17;4.35;;;2.10;;
84655;SDS011;76548;52.130;5.428;2024-02-21T15:21:29;1.65;;;1.27;;
84655;SDS011;76548;52.130;5.428;2024-02-21T15:23:57;5.82;;;1.98;;
84655;SDS011;76548;52.130;5.428;2024-02-21T15:26:29;5.00;;;1.13;;
84655;SDS011;76548;52.130;5.428;2024-02-21T15:28:57;3.13;;;1.35;;
84655;SDS011;76548;52.130;5.428;2024-02-21T15:34:17;6.55;;;2.17;;
84655;SDS011;76548;52.130;5.428;2024-02-21T15:36:46;6.10;;;2.22;;
84655;SDS011;76548;52.130;5.428;2024-02-21T15:39:14;4.07;;;2.03;;
84655;SDS011;76548;52.130;5.428;2024-02-21T15:41:41;2.93;;;1.60;;
84655;SDS011;76548;52.130;5.428;2024-02-21T15:44:09;2.53;;;1.30;;
84655;SDS011;76548;52.130;5.428;2024-02-21T15:46:40;4.30;;;1.65;;
84655;SDS011;76548;52.130;5.428;2024-02-21T15:49:09;4.45;;;1.80;;
84655;SDS011;76548;52.130;5.428;2024-02-21T15:51:38;3.57;;;2.07;;
84655;SDS011;76548;52.130;5.428;2024-02-21T15:54:08;3.60;;;1.88;;
84655;SDS011;76548;52.130;5.428;2024-02-21T15:56:37;5.97;;;1.80;;
84655;SDS011;76548;52.130;5.428;2024-02-21T15:59:05;2.83;;;2.15;;
84655;SDS011;76548;52.130;5.428;2024-02-21T16:01:33;2.70;;;1.20;;
84655;SDS011;76548;52.130;5.428;2024-02-21T16:04:02;2.60;;;1.50;;
84655;SDS011;76548;52.130;5.428;2024-02-21T16:06:31;4.85;;;2.38;;
84655;SDS011;76548;52.130;5.428;2024-02-21T16:08:59;4.10;;;2.13;;
84655;SDS011;76548;52.130;5.428;2024-02-21T16:11:27;5.00;;;2.33;;
84655;SDS011;76548;52.130;5.428;2024-02-21T16:13:55;3.88;;;1.15;;
84655;SDS011;76548;52.130;5.428;2024-02-21T16:16:23;4.28;;;1.80;;
84655;SDS011;76548;52.130;5.428;2024-02-21T16:19:03;4.47;;;2.33;;
84655;SDS011;76548;52.130;5.428;2024-02-21T16:21:32;2.00;;;1.70;;